sensor_id;sensor_type;location;lat;lon;timestamp;temperature;humidity
28548;DHT22;68292;49.600;8.746;2023-04-15T00:01:14;15.80;43.40
28548;DHT22;68292;49.600;8.746;2023-04-15T00:03:50;15.80;43.50
28548;DHT22;68292;49.600;8.746;2023-04-15T00:06:20;15.80;43.60
28548;DHT22;68292;49.600;8.746;2023-04-15T00:08:51;15.70;43.50
28548;DHT22;68292;49.600;8.746;2023-04-15T00:11:19;15.70;43.50
28548;DHT22;68292;49.600;8.746;2023-04-15T00:13:48;15.70;43.60
28548;DHT22;68292;49.600;8.746;2023-04-15T00:16:17;15.70;43.60
28548;DHT22;68292;49.600;8.746;2023-04-15T00:18:46;15.70;43.60
28548;DHT22;68292;49.600;8.746;2023-04-15T00:21:14;15.70;43.70
28548;DHT22;68292;49.600;8.746;2023-04-15T00:23:43;15.60;43.60
28548;DHT22;68292;49.600;8.746;2023-04-15T00:26:17;15.60;43.60
28548;DHT22;68292;49.600;8.746;2023-04-15T00:28:48;15.60;43.60
28548;DHT22;68292;49.600;8.746;2023-04-15T00:31:18;15.60;43.60
28548;DHT22;68292;49.600;8.746;2023-04-15T00:33:47;15.60;43.60
28548;DHT22;68292;49.600;8.746;2023-04-15T00:36:15;15.60;43.60
28548;DHT22;68292;49.600;8.746;2023-04-15T00:38:44;15.60;43.60
28548;DHT22;68292;49.600;8.746;2023-04-15T00:41:13;15.50;43.60
28548;DHT22;68292;49.600;8.746;2023-04-15T00:43:43;15.50;43.60
28548;DHT22;68292;49.600;8.746;2023-04-15T00:46:13;15.50;43.50
28548;DHT22;68292;49.600;8.746;2023-04-15T00:48:44;15.50;43.50
28548;DHT22;68292;49.600;8.746;2023-04-15T00:51:13;15.50;43.50
28548;DHT22;68292;49.600;8.746;2023-04-15T00:53:42;15.50;43.60
28548;DHT22;68292;49.600;8.746;2023-04-15T00:56:11;15.50;43.60
28548;DHT22;68292;49.600;8.746;2023-04-15T00:58:42;15.40;43.60
28548;DHT22;68292;49.600;8.746;2023-04-15T01:01:11;15.40;44.40
28548;DHT22;68292;49.600;8.746;2023-04-15T01:03:40;15.40;43.70
28548;DHT22;68292;49.600;8.746;2023-04-15T01:06:09;15.40;43.80
28548;DHT22;68292;49.600;8.746;2023-04-15T01:08:38;15.40;43.70
28548;DHT22;68292;49.600;8.746;2023-04-15T01:11:07;15.40;43.70
28548;DHT22;68292;49.600;8.746;2023-04-15T01:13:36;15.40;43.70
28548;DHT22;68292;49.600;8.746;2023-04-15T01:16:07;15.40;43.80
28548;DHT22;68292;49.600;8.746;2023-04-15T01:18:37;15.30;43.70
28548;DHT22;68292;49.600;8.746;2023-04-15T01:21:06;15.30;43.80
28548;DHT22;68292;49.600;8.746;2023-04-15T01:23:36;15.30;43.70
28548;DHT22;68292;49.600;8.746;2023-04-15T01:26:07;15.30;43.70
28548;DHT22;68292;49.600;8.746;2023-04-15T01:28:37;15.30;43.60
28548;DHT22;68292;49.600;8.746;2023-04-15T01:31:25;15.30;43.50
28548;DHT22;68292;49.600;8.746;2023-04-15T01:33:53;15.30;43.50
28548;DHT22;68292;49.600;8.746;2023-04-15T01:36:22;15.30;43.50
28548;DHT22;68292;49.600;8.746;2023-04-15T01:38:53;15.20;43.50
28548;DHT22;68292;49.600;8.746;2023-04-15T01:41:26;15.20;43.50
28548;DHT22;68292;49.600;8.746;2023-04-15T01:43:55;15.20;43.50
28548;DHT22;68292;49.600;8.746;2023-04-15T01:46:23;15.20;43.50
28548;DHT22;68292;49.600;8.746;2023-04-15T01:48:53;15.20;43.50
28548;DHT22;68292;49.600;8.746;2023-04-15T01:51:21;15.20;43.50
28548;DHT22;68292;49.600;8.746;2023-04-15T01:53:50;15.20;43.50
28548;DHT22;68292;49.600;8.746;2023-04-15T01:56:19;15.10;43.50
28548;DHT22;68292;49.600;8.746;2023-04-15T01:58:49;15.10;43.50
28548;DHT22;68292;49.600;8.746;2023-04-15T02:01:17;15.10;43.60
28548;DHT22;68292;49.600;8.746;2023-04-15T02:03:47;15.20;43.70
28548;DHT22;68292;49.600;8.746;2023-04-15T02:06:16;15.10;43.60
28548;DHT22;68292;49.600;8.746;2023-04-15T02:08:44;15.10;43.60
28548;DHT22;68292;49.600;8.746;2023-04-15T02:11:13;15.10;43.50
28548;DHT22;68292;49.600;8.746;2023-04-15T02:13:42;15.10;43.60
28548;DHT22;68292;49.600;8.746;2023-04-15T02:16:18;15.10;43.60
28548;DHT22;68292;49.600;8.746;2023-04-15T02:18:47;15.10;43.70
28548;DHT22;68292;49.600;8.746;2023-04-15T02:21:18;15.10;43.60
28548;DHT22;68292;49.600;8.746;2023-04-15T02:23:46;15.00;43.60
28548;DHT22;68292;49.600;8.746;2023-04-15T02:26:15;15.00;43.60
28548;DHT22;68292;49.600;8.746;2023-04-15T02:28:44;15.00;43.60
28548;DHT22;68292;49.600;8.746;2023-04-15T02:31:14;15.00;43.60
28548;DHT22;68292;49.600;8.746;2023-04-15T02:33:44;15.00;43.60
28548;DHT22;68292;49.600;8.746;2023-04-15T02:36:13;15.00;43.60
28548;DHT22;68292;49.600;8.746;2023-04-15T02:38:43;15.00;43.60
28548;DHT22;68292;49.600;8.746;2023-04-15T02:41:13;15.00;43.60
28548;DHT22;68292;49.600;8.746;2023-04-15T02:43:44;15.00;43.60
28548;DHT22;68292;49.600;8.746;2023-04-15T02:46:13;15.00;43.60
28548;DHT22;68292;49.600;8.746;2023-04-15T02:48:44;14.90;43.50
28548;DHT22;68292;49.600;8.746;2023-04-15T02:51:13;14.90;43.50
28548;DHT22;68292;49.600;8.746;2023-04-15T02:53:43;14.90;44.10
28548;DHT22;68292;49.600;8.746;2023-04-15T02:56:12;14.90;43.50
28548;DHT22;68292;49.600;8.746;2023-04-15T02:58:41;14.90;43.50
28548;DHT22;68292;49.600;8.746;2023-04-15T03:01:11;14.90;43.40
28548;DHT22;68292;49.600;8.746;2023-04-15T03:03:40;14.90;43.40
28548;DHT22;68292;49.600;8.746;2023-04-15T03:06:10;14.90;43.50
28548;DHT22;68292;49.600;8.746;2023-04-15T03:08:39;14.90;43.50
28548;DHT22;68292;49.600;8.746;2023-04-15T03:11:08;14.90;43.50
28548;DHT22;68292;49.600;8.746;2023-04-15T03:13:37;14.90;43.60
28548;DHT22;68292;49.600;8.746;2023-04-15T03:16:15;14.90;43.60
28548;DHT22;68292;49.600;8.746;2023-04-15T03:18:44;14.90;43.50
28548;DHT22;68292;49.600;8.746;2023-04-15T03:21:14;14.90;43.50
28548;DHT22;68292;49.600;8.746;2023-04-15T03:23:44;14.80;43.50
28548;DHT22;68292;49.600;8.746;2023-04-15T03:26:23;14.80;43.50
28548;DHT22;68292;49.600;8.746;2023-04-15T03:28:56;14.80;43.50
28548;DHT22;68292;49.600;8.746;2023-04-15T03:31:25;14.80;43.50
28548;DHT22;68292;49.600;8.746;2023-04-15T03:33:54;14.80;43.50
28548;DHT22;68292;49.600;8.746;2023-04-15T03:36:24;14.80;43.50
28548;DHT22;68292;49.600;8.746;2023-04-15T03:38:53;14.80;43.50
28548;DHT22;68292;49.600;8.746;2023-04-15T03:41:22;14.80;43.50
28548;DHT22;68292;49.600;8.746;2023-04-15T03:43:50;14.80;43.40
28548;DHT22;68292;49.600;8.746;2023-04-15T03:46:19;14.80;43.50
28548;DHT22;68292;49.600;8.746;2023-04-15T03:48:48;14.80;43.50
28548;DHT22;68292;49.600;8.746;2023-04-15T03:51:16;14.80;43.50
28548;DHT22;68292;49.600;8.746;2023-04-15T03:53:47;14.70;43.50
28548;DHT22;68292;49.600;8.746;2023-04-15T03:56:15;14.70;43.40
28548;DHT22;68292;49.600;8.746;2023-04-15T03:58:44;14.70;43.40
28548;DHT22;68292;49.600;8.746;2023-04-15T04:01:13;14.70;43.30
28548;DHT22;68292;49.600;8.746;2023-04-15T04:03:42;14.70;43.40
28548;DHT22;68292;49.600;8.746;2023-04-15T04:06:11;14.70;43.30
28548;DHT22;68292;49.600;8.746;2023-04-15T04:08:40;14.70;43.30
28548;DHT22;68292;49.600;8.746;2023-04-15T04:11:10;14.70;43.40
28548;DHT22;68292;49.600;8.746;2023-04-15T04:13:39;14.60;43.40
28548;DHT22;68292;49.600;8.746;2023-04-15T04:16:07;14.60;43.40
28548;DHT22;68292;49.600;8.746;2023-04-15T04:18:36;14.60;43.40
28548;DHT22;68292;49.600;8.746;2023-04-15T04:21:05;14.60;43.30
28548;DHT22;68292;49.600;8.746;2023-04-15T04:23:34;14.60;43.40
28548;DHT22;68292;49.600;8.746;2023-04-15T04:26:02;14.60;43.40
28548;DHT22;68292;49.600;8.746;2023-04-15T04:28:32;14.50;43.30
28548;DHT22;68292;49.600;8.746;2023-04-15T04:31:02;14.50;43.40
28548;DHT22;68292;49.600;8.746;2023-04-15T04:33:31;14.50;43.40
28548;DHT22;68292;49.600;8.746;2023-04-15T04:36:00;14.50;43.50
28548;DHT22;68292;49.600;8.746;2023-04-15T04:38:28;14.50;43.50
28548;DHT22;68292;49.600;8.746;2023-04-15T04:40:57;14.50;43.60
28548;DHT22;68292;49.600;8.746;2023-04-15T04:43:26;14.50;43.60
28548;DHT22;68292;49.600;8.746;2023-04-15T04:45:56;14.50;43.60
28548;DHT22;68292;49.600;8.746;2023-04-15T04:48:24;14.50;43.70
28548;DHT22;68292;49.600;8.746;2023-04-15T04:50:53;14.50;43.70
28548;DHT22;68292;49.600;8.746;2023-04-15T04:53:22;14.50;43.60
28548;DHT22;68292;49.600;8.746;2023-04-15T04:55:50;14.40;43.50
28548;DHT22;68292;49.600;8.746;2023-04-15T04:58:19;14.40;43.50
28548;DHT22;68292;49.600;8.746;2023-04-15T05:00:48;14.50;43.60
28548;DHT22;68292;49.600;8.746;2023-04-15T05:03:18;14.40;43.60
28548;DHT22;68292;49.600;8.746;2023-04-15T05:05:47;14.40;43.60
28548;DHT22;68292;49.600;8.746;2023-04-15T05:08:16;14.40;43.60
28548;DHT22;68292;49.600;8.746;2023-04-15T05:10:45;14.40;43.60
28548;DHT22;68292;49.600;8.746;2023-04-15T05:13:14;14.40;43.50
28548;DHT22;68292;49.600;8.746;2023-04-15T05:15:42;14.40;43.50
28548;DHT22;68292;49.600;8.746;2023-04-15T05:18:11;14.40;43.60
28548;DHT22;68292;49.600;8.746;2023-04-15T05:20:41;14.40;43.60
28548;DHT22;68292;49.600;8.746;2023-04-15T05:23:10;14.40;43.70
28548;DHT22;68292;49.600;8.746;2023-04-15T05:25:39;14.30;43.60
28548;DHT22;68292;49.600;8.746;2023-04-15T05:28:07;14.40;43.80
28548;DHT22;68292;49.600;8.746;2023-04-15T05:30:36;14.30;43.70
28548;DHT22;68292;49.600;8.746;2023-04-15T05:33:05;14.30;43.70
28548;DHT22;68292;49.600;8.746;2023-04-15T05:35:34;14.30;43.80
28548;DHT22;68292;49.600;8.746;2023-04-15T05:38:04;14.30;43.90
28548;DHT22;68292;49.600;8.746;2023-04-15T05:40:32;14.30;43.90
28548;DHT22;68292;49.600;8.746;2023-04-15T05:43:01;14.40;43.90
28548;DHT22;68292;49.600;8.746;2023-04-15T05:45:30;14.40;43.90
28548;DHT22;68292;49.600;8.746;2023-04-15T05:47:59;14.30;43.80
28548;DHT22;68292;49.600;8.746;2023-04-15T05:50:28;14.30;43.80
28548;DHT22;68292;49.600;8.746;2023-04-15T05:52:57;14.40;43.80
28548;DHT22;68292;49.600;8.746;2023-04-15T05:55:27;14.40;44.50
28548;DHT22;68292;49.600;8.746;2023-04-15T05:57:55;14.40;43.90
28548;DHT22;68292;49.600;8.746;2023-04-15T06:00:25;14.40;43.80
28548;DHT22;68292;49.600;8.746;2023-04-15T06:02:55;14.40;43.80
28548;DHT22;68292;49.600;8.746;2023-04-15T06:05:24;14.30;43.70
28548;DHT22;68292;49.600;8.746;2023-04-15T06:07:53;14.30;43.80
28548;DHT22;68292;49.600;8.746;2023-04-15T06:10:22;14.30;43.80
28548;DHT22;68292;49.600;8.746;2023-04-15T06:12:53;14.30;43.80
28548;DHT22;68292;49.600;8.746;2023-04-15T06:15:22;14.30;43.80
28548;DHT22;68292;49.600;8.746;2023-04-15T06:17:50;14.30;43.90
28548;DHT22;68292;49.600;8.746;2023-04-15T06:20:19;14.30;43.90
28548;DHT22;68292;49.600;8.746;2023-04-15T06:22:48;14.30;43.90
28548;DHT22;68292;49.600;8.746;2023-04-15T06:25:17;14.30;43.90
28548;DHT22;68292;49.600;8.746;2023-04-15T06:27:45;14.30;43.90
28548;DHT22;68292;49.600;8.746;2023-04-15T06:30:16;14.30;43.90
28548;DHT22;68292;49.600;8.746;2023-04-15T06:32:44;14.30;44.10
28548;DHT22;68292;49.600;8.746;2023-04-15T06:35:13;14.30;44.20
28548;DHT22;68292;49.600;8.746;2023-04-15T06:37:42;14.30;44.30
28548;DHT22;68292;49.600;8.746;2023-04-15T06:40:11;14.30;44.30
28548;DHT22;68292;49.600;8.746;2023-04-15T06:42:40;14.30;44.30
28548;DHT22;68292;49.600;8.746;2023-04-15T06:45:09;14.30;44.40
28548;DHT22;68292;49.600;8.746;2023-04-15T06:47:40;14.30;44.30
28548;DHT22;68292;49.600;8.746;2023-04-15T06:50:09;14.30;44.40
28548;DHT22;68292;49.600;8.746;2023-04-15T06:52:39;14.30;44.40
28548;DHT22;68292;49.600;8.746;2023-04-15T06:55:08;14.30;44.60
28548;DHT22;68292;49.600;8.746;2023-04-15T06:57:37;14.30;44.60
28548;DHT22;68292;49.600;8.746;2023-04-15T07:00:06;14.30;44.70
28548;DHT22;68292;49.600;8.746;2023-04-15T07:02:37;14.30;44.80
28548;DHT22;68292;49.600;8.746;2023-04-15T07:05:07;14.30;44.80
28548;DHT22;68292;49.600;8.746;2023-04-15T07:07:36;14.30;45.00
28548;DHT22;68292;49.600;8.746;2023-04-15T07:10:06;14.30;45.00
28548;DHT22;68292;49.600;8.746;2023-04-15T07:12:36;14.40;45.10
28548;DHT22;68292;49.600;8.746;2023-04-15T07:15:05;14.40;45.10
28548;DHT22;68292;49.600;8.746;2023-04-15T07:17:35;14.40;45.30
28548;DHT22;68292;49.600;8.746;2023-04-15T07:20:07;14.40;45.40
28548;DHT22;68292;49.600;8.746;2023-04-15T07:22:36;14.40;45.50
28548;DHT22;68292;49.600;8.746;2023-04-15T07:25:06;14.50;45.70
28548;DHT22;68292;49.600;8.746;2023-04-15T07:27:35;14.40;45.80
28548;DHT22;68292;49.600;8.746;2023-04-15T07:30:05;14.50;46.00
28548;DHT22;68292;49.600;8.746;2023-04-15T07:32:35;14.50;46.10
28548;DHT22;68292;49.600;8.746;2023-04-15T07:35:04;14.50;46.20
28548;DHT22;68292;49.600;8.746;2023-04-15T07:37:35;14.60;46.30
28548;DHT22;68292;49.600;8.746;2023-04-15T07:40:05;14.60;46.50
28548;DHT22;68292;49.600;8.746;2023-04-15T07:42:35;14.60;46.60
28548;DHT22;68292;49.600;8.746;2023-04-15T07:45:08;14.70;46.80
28548;DHT22;68292;49.600;8.746;2023-04-15T07:47:37;14.70;46.90
28548;DHT22;68292;49.600;8.746;2023-04-15T07:50:08;14.80;47.00
28548;DHT22;68292;49.600;8.746;2023-04-15T07:52:39;14.80;47.10
28548;DHT22;68292;49.600;8.746;2023-04-15T07:55:08;14.90;47.20
28548;DHT22;68292;49.600;8.746;2023-04-15T07:57:37;14.90;47.20
28548;DHT22;68292;49.600;8.746;2023-04-15T08:00:07;14.90;47.20
28548;DHT22;68292;49.600;8.746;2023-04-15T08:02:40;15.00;47.90
28548;DHT22;68292;49.600;8.746;2023-04-15T08:05:09;15.10;47.30
28548;DHT22;68292;49.600;8.746;2023-04-15T08:07:39;15.10;47.30
28548;DHT22;68292;49.600;8.746;2023-04-15T08:10:08;15.10;47.50
28548;DHT22;68292;49.600;8.746;2023-04-15T08:12:38;15.20;47.50
28548;DHT22;68292;49.600;8.746;2023-04-15T08:15:07;15.30;47.60
28548;DHT22;68292;49.600;8.746;2023-04-15T08:17:36;15.30;47.80
28548;DHT22;68292;49.600;8.746;2023-04-15T08:20:06;15.40;47.90
28548;DHT22;68292;49.600;8.746;2023-04-15T08:22:35;15.40;48.00
28548;DHT22;68292;49.600;8.746;2023-04-15T08:25:07;15.50;48.00
28548;DHT22;68292;49.600;8.746;2023-04-15T08:27:36;15.60;48.30
28548;DHT22;68292;49.600;8.746;2023-04-15T08:30:06;15.70;48.20
28548;DHT22;68292;49.600;8.746;2023-04-15T08:32:36;15.70;48.40
28548;DHT22;68292;49.600;8.746;2023-04-15T08:35:05;15.80;48.40
28548;DHT22;68292;49.600;8.746;2023-04-15T08:37:34;15.90;48.40
28548;DHT22;68292;49.600;8.746;2023-04-15T08:40:03;15.90;48.30
28548;DHT22;68292;49.600;8.746;2023-04-15T08:42:40;16.00;48.30
28548;DHT22;68292;49.600;8.746;2023-04-15T08:45:10;16.10;48.20
28548;DHT22;68292;49.600;8.746;2023-04-15T08:47:39;16.10;48.10
28548;DHT22;68292;49.600;8.746;2023-04-15T08:50:09;16.20;48.10
28548;DHT22;68292;49.600;8.746;2023-04-15T08:52:39;16.20;48.10
28548;DHT22;68292;49.600;8.746;2023-04-15T08:55:11;16.30;48.20
28548;DHT22;68292;49.600;8.746;2023-04-15T08:57:41;16.30;48.40
28548;DHT22;68292;49.600;8.746;2023-04-15T09:00:12;16.40;48.30
28548;DHT22;68292;49.600;8.746;2023-04-15T09:02:42;16.40;48.50
28548;DHT22;68292;49.600;8.746;2023-04-15T09:05:11;16.50;48.50
28548;DHT22;68292;49.600;8.746;2023-04-15T09:07:40;16.50;48.50
28548;DHT22;68292;49.600;8.746;2023-04-15T09:10:10;16.60;48.60
28548;DHT22;68292;49.600;8.746;2023-04-15T09:12:39;16.70;48.60
28548;DHT22;68292;49.600;8.746;2023-04-15T09:15:10;16.80;48.70
28548;DHT22;68292;49.600;8.746;2023-04-15T09:17:42;16.90;48.90
28548;DHT22;68292;49.600;8.746;2023-04-15T09:20:12;17.00;48.70
28548;DHT22;68292;49.600;8.746;2023-04-15T09:22:45;17.00;48.40
28548;DHT22;68292;49.600;8.746;2023-04-15T09:25:27;17.10;48.40
28548;DHT22;68292;49.600;8.746;2023-04-15T09:28:00;17.20;48.50
28548;DHT22;68292;49.600;8.746;2023-04-15T09:30:30;17.30;48.10
28548;DHT22;68292;49.600;8.746;2023-04-15T09:32:59;17.30;48.00
28548;DHT22;68292;49.600;8.746;2023-04-15T09:35:31;17.40;48.00
28548;DHT22;68292;49.600;8.746;2023-04-15T09:38:03;17.40;47.80
28548;DHT22;68292;49.600;8.746;2023-04-15T09:40:35;17.40;47.70
28548;DHT22;68292;49.600;8.746;2023-04-15T09:43:05;17.50;47.50
28548;DHT22;68292;49.600;8.746;2023-04-15T09:45:35;17.50;47.40
28548;DHT22;68292;49.600;8.746;2023-04-15T09:48:15;17.50;47.10
28548;DHT22;68292;49.600;8.746;2023-04-15T09:50:47;17.50;47.20
28548;DHT22;68292;49.600;8.746;2023-04-15T09:53:17;17.50;47.00
28548;DHT22;68292;49.600;8.746;2023-04-15T09:55:51;17.50;47.00
28548;DHT22;68292;49.600;8.746;2023-04-15T09:58:22;17.50;47.00
28548;DHT22;68292;49.600;8.746;2023-04-15T10:00:53;17.50;47.00
28548;DHT22;68292;49.600;8.746;2023-04-15T10:03:24;17.50;47.00
28548;DHT22;68292;49.600;8.746;2023-04-15T10:05:57;17.50;47.00
28548;DHT22;68292;49.600;8.746;2023-04-15T10:08:28;17.60;46.80
28548;DHT22;68292;49.600;8.746;2023-04-15T10:10:59;17.60;46.70
28548;DHT22;68292;49.600;8.746;2023-04-15T10:13:30;17.60;46.60
28548;DHT22;68292;49.600;8.746;2023-04-15T10:16:05;17.60;46.50
28548;DHT22;68292;49.600;8.746;2023-04-15T10:18:37;17.60;46.50
28548;DHT22;68292;49.600;8.746;2023-04-15T10:21:08;17.60;46.40
28548;DHT22;68292;49.600;8.746;2023-04-15T10:23:37;17.60;46.40
28548;DHT22;68292;49.600;8.746;2023-04-15T10:26:09;17.60;46.20
28548;DHT22;68292;49.600;8.746;2023-04-15T10:28:41;17.60;46.10
28548;DHT22;68292;49.600;8.746;2023-04-15T10:31:11;17.60;46.00
28548;DHT22;68292;49.600;8.746;2023-04-15T10:33:41;17.60;46.00
28548;DHT22;68292;49.600;8.746;2023-04-15T10:36:11;17.60;46.00
28548;DHT22;68292;49.600;8.746;2023-04-15T10:38:41;17.60;46.00
28548;DHT22;68292;49.600;8.746;2023-04-15T10:41:14;17.60;46.00
28548;DHT22;68292;49.600;8.746;2023-04-15T10:43:52;17.50;45.80
28548;DHT22;68292;49.600;8.746;2023-04-15T10:46:23;17.50;45.80
28548;DHT22;68292;49.600;8.746;2023-04-15T10:48:52;17.50;45.90
28548;DHT22;68292;49.600;8.746;2023-04-15T10:51:29;17.40;45.90
28548;DHT22;68292;49.600;8.746;2023-04-15T10:54:01;17.40;45.90
28548;DHT22;68292;49.600;8.746;2023-04-15T10:56:31;17.40;46.00
28548;DHT22;68292;49.600;8.746;2023-04-15T10:59:00;17.40;45.90
28548;DHT22;68292;49.600;8.746;2023-04-15T11:01:50;17.40;45.90
28548;DHT22;68292;49.600;8.746;2023-04-15T11:04:51;17.30;45.50
28548;DHT22;68292;49.600;8.746;2023-04-15T11:07:35;17.30;45.60
28548;DHT22;68292;49.600;8.746;2023-04-15T11:13:25;17.30;46.00
28548;DHT22;68292;49.600;8.746;2023-04-15T11:15:59;17.30;46.00
28548;DHT22;68292;49.600;8.746;2023-04-15T11:18:31;17.30;46.10
28548;DHT22;68292;49.600;8.746;2023-04-15T11:21:02;17.30;46.10
28548;DHT22;68292;49.600;8.746;2023-04-15T11:23:34;17.30;46.00
28548;DHT22;68292;49.600;8.746;2023-04-15T11:26:06;17.30;45.90
28548;DHT22;68292;49.600;8.746;2023-04-15T11:28:40;17.30;46.00
28548;DHT22;68292;49.600;8.746;2023-04-15T11:31:12;17.30;45.90
28548;DHT22;68292;49.600;8.746;2023-04-15T11:33:46;17.40;46.00
28548;DHT22;68292;49.600;8.746;2023-04-15T11:36:22;17.40;46.10
28548;DHT22;68292;49.600;8.746;2023-04-15T11:38:52;17.40;46.10
28548;DHT22;68292;49.600;8.746;2023-04-15T11:41:21;17.40;46.10
28548;DHT22;68292;49.600;8.746;2023-04-15T11:43:51;17.50;46.30
28548;DHT22;68292;49.600;8.746;2023-04-15T11:46:20;17.40;46.10
28548;DHT22;68292;49.600;8.746;2023-04-15T11:48:55;17.50;46.00
28548;DHT22;68292;49.600;8.746;2023-04-15T11:51:24;17.50;46.10
28548;DHT22;68292;49.600;8.746;2023-04-15T11:53:53;17.60;46.20
28548;DHT22;68292;49.600;8.746;2023-04-15T11:56:23;17.60;46.20
28548;DHT22;68292;49.600;8.746;2023-04-15T11:58:55;17.60;46.20
28548;DHT22;68292;49.600;8.746;2023-04-15T12:01:30;17.60;46.30
28548;DHT22;68292;49.600;8.746;2023-04-15T12:03:59;17.70;46.20
28548;DHT22;68292;49.600;8.746;2023-04-15T12:06:31;17.70;46.10
28548;DHT22;68292;49.600;8.746;2023-04-15T12:09:07;17.70;46.10
28548;DHT22;68292;49.600;8.746;2023-04-15T12:11:39;17.80;45.90
28548;DHT22;68292;49.600;8.746;2023-04-15T12:14:19;17.80;45.80
28548;DHT22;68292;49.600;8.746;2023-04-15T12:16:50;17.90;45.70
28548;DHT22;68292;49.600;8.746;2023-04-15T12:19:26;17.90;45.70
28548;DHT22;68292;49.600;8.746;2023-04-15T12:21:58;17.90;45.60
28548;DHT22;68292;49.600;8.746;2023-04-15T12:24:30;17.90;45.40
28548;DHT22;68292;49.600;8.746;2023-04-15T12:27:02;18.00;45.40
28548;DHT22;68292;49.600;8.746;2023-04-15T12:29:34;17.90;45.30
28548;DHT22;68292;49.600;8.746;2023-04-15T12:32:05;18.00;45.40
28548;DHT22;68292;49.600;8.746;2023-04-15T12:34:36;18.00;45.50
28548;DHT22;68292;49.600;8.746;2023-04-15T12:37:06;18.00;45.50
28548;DHT22;68292;49.600;8.746;2023-04-15T12:39:39;18.00;45.40
28548;DHT22;68292;49.600;8.746;2023-04-15T12:42:09;18.00;45.40
28548;DHT22;68292;49.600;8.746;2023-04-15T12:44:40;18.00;45.40
28548;DHT22;68292;49.600;8.746;2023-04-15T12:47:12;18.00;45.40
28548;DHT22;68292;49.600;8.746;2023-04-15T12:49:40;18.00;45.20
28548;DHT22;68292;49.600;8.746;2023-04-15T12:52:09;18.00;45.30
28548;DHT22;68292;49.600;8.746;2023-04-15T12:54:38;18.00;45.30
28548;DHT22;68292;49.600;8.746;2023-04-15T12:57:07;18.00;45.30
28548;DHT22;68292;49.600;8.746;2023-04-15T12:59:36;18.00;45.20
28548;DHT22;68292;49.600;8.746;2023-04-15T13:02:06;18.00;45.20
28548;DHT22;68292;49.600;8.746;2023-04-15T13:04:35;18.00;45.10
28548;DHT22;68292;49.600;8.746;2023-04-15T13:07:04;18.00;45.00
28548;DHT22;68292;49.600;8.746;2023-04-15T13:09:32;18.00;45.10
28548;DHT22;68292;49.600;8.746;2023-04-15T13:12:01;18.00;45.00
28548;DHT22;68292;49.600;8.746;2023-04-15T13:14:31;18.00;45.00
28548;DHT22;68292;49.600;8.746;2023-04-15T13:17:00;18.00;44.90
28548;DHT22;68292;49.600;8.746;2023-04-15T13:19:31;18.00;45.10
28548;DHT22;68292;49.600;8.746;2023-04-15T13:22:00;18.00;45.40
28548;DHT22;68292;49.600;8.746;2023-04-15T13:24:28;18.00;45.60
28548;DHT22;68292;49.600;8.746;2023-04-15T13:26:58;18.00;45.80
28548;DHT22;68292;49.600;8.746;2023-04-15T13:29:26;18.00;45.90
28548;DHT22;68292;49.600;8.746;2023-04-15T13:31:55;17.90;46.10
28548;DHT22;68292;49.600;8.746;2023-04-15T13:34:24;17.90;46.30
28548;DHT22;68292;49.600;8.746;2023-04-15T13:36:54;17.90;46.50
28548;DHT22;68292;49.600;8.746;2023-04-15T13:39:23;17.80;46.60
28548;DHT22;68292;49.600;8.746;2023-04-15T13:41:51;17.80;46.80
28548;DHT22;68292;49.600;8.746;2023-04-15T13:44:20;17.80;47.00
28548;DHT22;68292;49.600;8.746;2023-04-15T13:46:49;17.70;47.10
28548;DHT22;68292;49.600;8.746;2023-04-15T13:49:17;17.70;47.40
28548;DHT22;68292;49.600;8.746;2023-04-15T13:51:46;17.60;47.60
28548;DHT22;68292;49.600;8.746;2023-04-15T13:54:16;17.60;47.80
28548;DHT22;68292;49.600;8.746;2023-04-15T13:56:45;17.50;48.00
28548;DHT22;68292;49.600;8.746;2023-04-15T13:59:13;17.50;48.10
28548;DHT22;68292;49.600;8.746;2023-04-15T14:01:42;17.50;48.30
28548;DHT22;68292;49.600;8.746;2023-04-15T14:04:11;17.40;48.50
28548;DHT22;68292;49.600;8.746;2023-04-15T14:06:41;17.40;48.60
28548;DHT22;68292;49.600;8.746;2023-04-15T14:09:10;17.40;48.70
28548;DHT22;68292;49.600;8.746;2023-04-15T14:11:40;17.30;48.70
28548;DHT22;68292;49.600;8.746;2023-04-15T14:14:09;17.30;49.00
28548;DHT22;68292;49.600;8.746;2023-04-15T14:16:37;17.30;49.00
28548;DHT22;68292;49.600;8.746;2023-04-15T14:19:06;17.20;49.00
28548;DHT22;68292;49.600;8.746;2023-04-15T14:21:35;17.30;49.20
28548;DHT22;68292;49.600;8.746;2023-04-15T14:24:04;17.20;49.30
28548;DHT22;68292;49.600;8.746;2023-04-15T14:26:33;17.20;49.40
28548;DHT22;68292;49.600;8.746;2023-04-15T14:29:03;17.20;49.40
28548;DHT22;68292;49.600;8.746;2023-04-15T14:31:32;17.20;49.60
28548;DHT22;68292;49.600;8.746;2023-04-15T14:34:01;17.20;49.40
28548;DHT22;68292;49.600;8.746;2023-04-15T14:36:30;17.20;49.40
28548;DHT22;68292;49.600;8.746;2023-04-15T14:38:59;17.30;49.50
28548;DHT22;68292;49.600;8.746;2023-04-15T14:41:28;17.30;49.50
28548;DHT22;68292;49.600;8.746;2023-04-15T14:43:56;17.20;49.40
28548;DHT22;68292;49.600;8.746;2023-04-15T14:46:27;17.30;50.20
28548;DHT22;68292;49.600;8.746;2023-04-15T14:48:56;17.30;49.60
28548;DHT22;68292;49.600;8.746;2023-04-15T14:51:25;17.30;49.60
28548;DHT22;68292;49.600;8.746;2023-04-15T14:53:53;17.30;49.50
28548;DHT22;68292;49.600;8.746;2023-04-15T14:56:22;17.30;49.40
28548;DHT22;68292;49.600;8.746;2023-04-15T14:58:50;17.30;49.30
28548;DHT22;68292;49.600;8.746;2023-04-15T15:01:20;17.30;49.40
28548;DHT22;68292;49.600;8.746;2023-04-15T15:03:50;17.40;49.50
28548;DHT22;68292;49.600;8.746;2023-04-15T15:06:20;17.40;49.60
28548;DHT22;68292;49.600;8.746;2023-04-15T15:08:49;17.40;49.50
28548;DHT22;68292;49.600;8.746;2023-04-15T15:11:18;17.40;49.50
28548;DHT22;68292;49.600;8.746;2023-04-15T15:13:47;17.40;49.50
28548;DHT22;68292;49.600;8.746;2023-04-15T15:16:15;17.40;49.50
28548;DHT22;68292;49.600;8.746;2023-04-15T15:18:44;17.40;49.40
28548;DHT22;68292;49.600;8.746;2023-04-15T15:21:14;17.40;49.30
28548;DHT22;68292;49.600;8.746;2023-04-15T15:23:43;17.40;49.30
28548;DHT22;68292;49.600;8.746;2023-04-15T15:26:12;17.40;49.40
28548;DHT22;68292;49.600;8.746;2023-04-15T15:28:40;17.40;49.50
28548;DHT22;68292;49.600;8.746;2023-04-15T15:31:09;17.40;49.50
28548;DHT22;68292;49.600;8.746;2023-04-15T15:33:38;17.40;49.60
28548;DHT22;68292;49.600;8.746;2023-04-15T15:36:06;17.40;49.70
28548;DHT22;68292;49.600;8.746;2023-04-15T15:38:39;17.40;49.70
28548;DHT22;68292;49.600;8.746;2023-04-15T15:41:08;17.40;49.80
28548;DHT22;68292;49.600;8.746;2023-04-15T15:43:37;17.40;49.70
28548;DHT22;68292;49.600;8.746;2023-04-15T15:46:05;17.40;49.80
28548;DHT22;68292;49.600;8.746;2023-04-15T15:48:35;17.40;49.90
28548;DHT22;68292;49.600;8.746;2023-04-15T15:51:03;17.50;49.90